Westerville, NE (68881)

11:28 AM CDT on July 28, 2014 (GMT -0500)
KNEANSLE2 Elev 2320 ft | 41.29 °N, 99.38 °W | Change Station

Current weather conditions updated 29 minutes ago

Clear
Clear
69.3 °F
Feels Like 69.3 °F
N
1.0
Wind Variable Wind from SSE
Gusts 6.0 mph

Today is forecast to be Cooler than yesterday.

Today
High -- | Low -- °F
--% Chance of Precip.
Yesterday
High -- | Low -- °F
Precip. -- in
6:28 AM 8:58 PM
Waxing Crescent, 3% visible
Pressure 30.31 in
Visibility 10.0 miles
Clouds Clear
Dew Point 58 °F
Humidity 68%
Rainfall 0.00 in
Snow Depth Not available.
UV 7 out of 12
Pollen 7.20 out of 12
Air Quality Not available.
Flu Activity Not available.
METAR KBBW 281553Z AUTO VRB03KT 10SM CLR 22/13 A3035 RMK AO2 SLP263 T02170128

More Conditions Fewer Conditions

Pressure 30.31 in
Visibility 10.0 miles
Clouds Clear
Dew Point 58 °F
Humidity 68%
Rainfall 0.00 in
Snow Depth Not available.
UV 7 out of 12
Pollen 7.20 out of 12
Air Quality Not available.
Flu Activity Not available.
METAR KBBW 281553Z AUTO VRB03KT 10SM CLR 22/13 A3035 RMK AO2 SLP263 T02170128

More Conditions Fewer Conditions

10-Day Weather Forecast

Almanac

Astronomy

Jul. 28, 2014 Rise Set
Actual Time 6:28 AM CDT 8:58 PM CDT
Civil Twilight 5:57 AM CDT 9:30 PM CDT
Nautical Twilight 5:17 AM CDT 10:09 PM CDT
Astronomical Twilight 4:33 AM CDT 10:53 PM CDT
Moon 8:13 AM CDT 9:39 PM CDT
Length of Visible Light 15h 33m
Length of Day
14h 30m
Tomorrow will be 2m 0s shorter.
Waxing Crescent, 3% of the Moon is Illuminated
Today
Waxing Crescent
Aug 3
First Quarter
Aug 10
Full
Aug 17
Last Quarter
Aug 25
New

Today's Extremes

State Highs State Lows

Community

WunderPhotos

Upload Photos

1,738,401 photos uploaded!

WunderBlogs® & News

Nearby

Snow Depth

Station Depth Elevation
No new snow has been reported.

Earthquake Activity

City Distance Mag. Time & Date
No recent earthquake activity has been reported nearby.
Minimum magnitude displayed is 2.5.

Coastal Water Temperatures

Place Temperature
No Stations Reporting

Nearby Weather Stations

Station Location Temp. Heat Index Dew Point Humidity Wind Precip. Elev Updated Type
Ansley, NE 69.3 °F - 58 °F 68% SSE  at  1.0 mph 0.00 in / hr 2320 ft 10:59 AM CDT Normal
South of Town, Broken Bow, NE 71.4 °F 76 °F 57 °F 60% East  at  2.0 mph 0.00 in / hr 2523 ft 11:28 AM CDT Normal
Sargent, Sargent, NE 70.8 °F 76 °F 56 °F 60% NNW  at  0.0 mph 0.00 in / hr 2314 ft 11:18 AM CDT Normal
Central, Loup City, NE 71.6 °F 75 °F 59 °F 64% NNW  at  3.7 mph - / hr 2090 ft 11:14 AM CDT Normal

Show More Stations Show Fewer Stations